Time;durP1;ratioP1;P1;durP2;ratioP2;P2;SDS_P1;SDS_P2;PMS_P1;PMS_P2;Temp;Humidity;BMP_temperature;BMP_pressure;BME280_temperature;BME280_humidity;BME280_pressure;Samples;Min_cycle;Max_cycle;Signal;HPM_P1;HPM_P2
2023/08/22 00:00:10;;;;;;;8.38;3.00;;;;;;;;;;4977813;28;20118;-64
2023/08/22 00:02:35;;;;;;;7.30;3.42;;;;;;;;;;4974055;28;20126;-63
2023/08/22 00:05:01;;;;;;;9.27;3.30;;;;;;;;;;4973875;28;20102;-63
2023/08/22 00:07:27;;;;;;;6.05;3.05;;;;;;;;;;4991671;28;20036;-63
2023/08/22 00:09:52;;;;;;;8.13;3.15;;;;;;;;;;4993213;28;20026;-63
2023/08/22 00:12:18;;;;;;;8.43;3.40;;;;;;;;;;4993124;28;20030;-63
2023/08/22 00:14:44;;;;;;;7.07;3.50;;;;;;;;;;4993232;28;20053;-63
2023/08/22 00:17:10;;;;;;;5.82;2.85;;;;;;;;;;4991895;28;20027;-63
2023/08/22 00:19:39;;;;;;;6.55;2.88;;;;;;;;;;4993096;28;20030;-63
2023/08/22 00:22:05;;;;;;;10.07;3.15;;;;;;;;;;4992819;28;20033;-62
2023/08/22 00:24:32;;;;;;;6.40;3.20;;;;;;;;;;4989717;28;20023;-63
2023/08/22 00:26:58;;;;;;;8.23;3.63;;;;;;;;;;4973652;28;20034;-63
2023/08/22 00:29:23;;;;;;;9.85;3.20;;;;;;;;;;4972275;28;20035;-63
2023/08/22 00:31:49;;;;;;;7.55;3.60;;;;;;;;;;4973295;28;20055;-63
2023/08/22 00:34:14;;;;;;;10.80;3.88;;;;;;;;;;4973524;28;20349;-63
2023/08/22 00:36:40;;;;;;;7.07;3.13;;;;;;;;;;4973121;28;20484;-63
2023/08/22 00:39:05;;;;;;;6.30;3.22;;;;;;;;;;4973484;28;20473;-64
2023/08/22 00:41:32;;;;;;;7.40;3.22;;;;;;;;;;4973430;28;20198;-63
2023/08/22 00:43:58;;;;;;;9.10;2.97;;;;;;;;;;4973770;28;20042;-64
2023/08/22 00:46:25;;;;;;;5.07;3.00;;;;;;;;;;4973303;28;20396;-63
2023/08/22 00:48:51;;;;;;;12.73;3.08;;;;;;;;;;4973439;28;20086;-63
2023/08/22 00:51:17;;;;;;;8.60;3.00;;;;;;;;;;4978582;28;20022;-63
2023/08/22 00:53:44;;;;;;;5.30;2.90;;;;;;;;;;4992956;28;20468;-63
2023/08/22 00:56:09;;;;;;;6.25;2.90;;;;;;;;;;4992471;28;20077;-64
2023/08/22 00:58:35;;;;;;;8.50;3.30;;;;;;;;;;4990002;28;20392;-63
2023/08/22 01:01:02;;;;;;;7.45;3.00;;;;;;;;;;4973193;28;20085;-63
2023/08/22 01:03:28;;;;;;;6.55;3.47;;;;;;;;;;4973108;28;20038;-63
2023/08/22 01:06:00;;;;;;;8.35;3.30;;;;;;;;;;4979022;28;20361;-63
2023/08/22 01:08:31;;;;;;;6.85;3.72;;;;;;;;;;4994504;28;20042;-63
2023/08/22 01:11:01;;;;;;;6.63;2.80;;;;;;;;;;4995199;28;20499;-63
2023/08/22 01:13:31;;;;;;;;;;;;;;;;;;4996809;28;20038;-64
2023/08/22 01:15:57;;;;;;;8.57;3.25;;;;;;;;;;4996466;28;19913;-64
2023/08/22 01:18:24;;;;;;;5.78;3.25;;;;;;;;;;4995999;28;20050;-63
2023/08/22 01:20:50;;;;;;;8.40;2.95;;;;;;;;;;4996225;28;20096;-63
2023/08/22 01:23:15;;;;;;;8.48;2.95;;;;;;;;;;4996311;28;20528;-63
2023/08/22 01:25:41;;;;;;;7.45;3.00;;;;;;;;;;4983222;28;20489;-63
2023/08/22 01:28:29;;;;;;;8.07;3.00;;;;;;;;;;4976701;28;20384;-64
2023/08/22 01:31:17;;;;;;;10.25;3.30;;;;;;;;;;4976651;28;20432;-64
2023/08/22 01:33:53;;;;;;;8.30;3.10;;;;;;;;;;4973214;28;20074;-63
2023/08/22 01:36:20;;;;;;;8.00;2.90;;;;;;;;;;4976298;28;20026;-63
2023/08/22 01:38:48;;;;;;;7.25;3.03;;;;;;;;;;4976422;28;20468;-63
2023/08/22 01:41:15;;;;;;;5.75;3.30;;;;;;;;;;4976457;28;20037;-64
2023/08/22 01:43:42;;;;;;;7.25;3.80;;;;;;;;;;4976412;28;20022;-64
2023/08/22 01:46:08;;;;;;;8.00;4.03;;;;;;;;;;4976309;28;20023;-64
2023/08/22 01:48:34;;;;;;;7.47;3.78;;;;;;;;;;4976170;28;20031;-65
2023/08/22 01:51:00;;;;;;;5.97;3.60;;;;;;;;;;4979193;28;20023;-65
2023/08/22 01:53:26;;;;;;;9.02;3.72;;;;;;;;;;4995679;28;20138;-64
2023/08/22 01:55:51;;;;;;;7.50;3.42;;;;;;;;;;4995702;28;20452;-64
2023/08/22 01:58:16;;;;;;;7.75;3.08;;;;;;;;;;4995047;28;20034;-65
2023/08/22 02:00:42;;;;;;;8.43;3.45;;;;;;;;;;4976012;28;20027;-64
2023/08/22 02:03:08;;;;;;;5.43;3.33;;;;;;;;;;4975831;28;20101;-65
2023/08/22 02:05:33;;;;;;;9.15;3.70;;;;;;;;;;4979047;28;20028;-65
2023/08/22 02:08:00;;;;;;;9.98;3.58;;;;;;;;;;4995425;28;20427;-64
2023/08/22 02:10:26;;;;;;;6.13;3.30;;;;;;;;;;4995257;28;20022;-64
2023/08/22 02:12:51;;;;;;;7.28;4.40;;;;;;;;;;4995420;28;20030;-64
2023/08/22 02:15:17;;;;;;;6.03;3.50;;;;;;;;;;4995283;28;20065;-64
2023/08/22 02:17:43;;;;;;;7.85;4.15;;;;;;;;;;4995024;28;20038;-64
2023/08/22 02:20:09;;;;;;;12.57;4.55;;;;;;;;;;4994192;28;20142;-64
2023/08/22 02:22:41;;;;;;;10.55;6.72;;;;;;;;;;4995161;28;20572;-65
2023/08/22 02:25:08;;;;;;;11.48;5.00;;;;;;;;;;4986994;28;20023;-64
2023/08/22 02:27:33;;;;;;;9.27;4.32;;;;;;;;;;4975658;28;20081;-64
2023/08/22 02:29:59;;;;;;;11.82;5.57;;;;;;;;;;4975598;28;20027;-64
2023/08/22 02:32:24;;;;;;;13.77;5.43;;;;;;;;;;4975044;28;20448;-64
2023/08/22 02:34:50;;;;;;;8.70;5.22;;;;;;;;;;4975491;28;20082;-63
2023/08/22 02:37:15;;;;;;;9.38;4.93;;;;;;;;;;4975178;28;20026;-63
2023/08/22 02:39:40;;;;;;;9.30;4.40;;;;;;;;;;4975266;28;20034;-64
2023/08/22 02:42:06;;;;;;;10.50;5.15;;;;;;;;;;4975220;28;20034;-63
2023/08/22 02:44:31;;;;;;;9.63;5.47;;;;;;;;;;4975102;28;20026;-63
2023/08/22 02:46:57;;;;;;;8.13;4.88;;;;;;;;;;4975211;28;20400;-63
2023/08/22 02:49:22;;;;;;;11.23;4.75;;;;;;;;;;4984142;28;20141;-63
2023/08/22 02:51:48;;;;;;;8.85;4.82;;;;;;;;;;4994557;28;20057;-63
2023/08/22 02:54:13;;;;;;;10.77;5.25;;;;;;;;;;4994371;28;20460;-63
2023/08/22 02:56:39;;;;;;;11.80;5.53;;;;;;;;;;4994423;28;20041;-63
2023/08/22 02:59:04;;;;;;;16.63;9.43;;;;;;;;;;4987344;28;20042;-63
2023/08/22 03:01:29;;;;;;;8.82;5.57;;;;;;;;;;4974645;28;20145;-64
2023/08/22 03:03:56;;;;;;;8.27;4.57;;;;;;;;;;4974984;28;20461;-63
2023/08/22 03:06:24;;;;;;;12.50;4.82;;;;;;;;;;4984295;28;20121;-63
2023/08/22 03:08:50;;;;;;;12.43;4.25;;;;;;;;;;4994186;28;20045;-63
2023/08/22 03:11:15;;;;;;;9.50;4.85;;;;;;;;;;4994109;28;20464;-63
2023/08/22 03:13:40;;;;;;;11.25;5.05;;;;;;;;;;4994199;28;20022;-65
2023/08/22 03:16:06;;;;;;;14.15;5.93;;;;;;;;;;4984097;28;20031;-63
2023/08/22 03:18:31;;;;;;;10.73;4.82;;;;;;;;;;4974751;28;20034;-65
2023/08/22 03:20:57;;;;;;;8.65;3.75;;;;;;;;;;4974573;28;20058;-65
2023/08/22 03:23:23;;;;;;;10.32;4.85;;;;;;;;;;4974444;28;20025;-63
2023/08/22 03:25:58;;;;;;;12.55;4.90;;;;;;;;;;4974317;28;20065;-64
2023/08/22 03:28:24;;;;;;;9.70;4.85;;;;;;;;;;4974193;28;20118;-64
2023/08/22 03:30:57;;;;;;;10.07;4.35;;;;;;;;;;4974298;28;20472;-64
2023/08/22 03:33:24;;;;;;;12.43;4.85;;;;;;;;;;4974193;28;20051;-64
2023/08/22 03:35:53;;;;;;;11.48;4.95;;;;;;;;;;4974368;28;20491;-64
2023/08/22 03:38:19;;;;;;;6.72;4.13;;;;;;;;;;4973912;28;20034;-64
2023/08/22 03:40:44;;;;;;;11.65;4.85;;;;;;;;;;4974349;28;20584;-64
2023/08/22 03:43:10;;;;;;;14.57;4.45;;;;;;;;;;4974136;28;20034;-65
2023/08/22 03:45:35;;;;;;;7.95;4.35;;;;;;;;;;4974093;28;20030;-64
2023/08/22 03:48:03;;;;;;;9.63;4.55;;;;;;;;;;4974111;28;20366;-63
2023/08/22 03:50:30;;;;;;;11.30;4.55;;;;;;;;;;4974036;28;20436;-64
2023/08/22 03:52:55;;;;;;;9.75;4.07;;;;;;;;;;4992301;28;20487;-63
2023/08/22 03:55:20;;;;;;;8.27;3.97;;;;;;;;;;4993496;28;20034;-63
2023/08/22 03:57:46;;;;;;;13.00;4.70;;;;;;;;;;4993137;28;20051;-63
2023/08/22 04:00:12;;;;;;;8.82;4.47;;;;;;;;;;4977399;28;20118;-64
2023/08/22 04:02:38;;;;;;;7.70;4.40;;;;;;;;;;4973904;28;20030;-64
2023/08/22 04:05:04;;;;;;;6.13;4.00;;;;;;;;;;4973947;28;20110;-64
2023/08/22 04:07:29;;;;;;;7.32;3.67;;;;;;;;;;4992417;28;20038;-63
2023/08/22 04:09:54;;;;;;;14.65;6.38;;;;;;;;;;4993335;28;20026;-63
2023/08/22 04:12:20;;;;;;;7.82;4.05;;;;;;;;;;4978173;28;20023;-63
2023/08/22 04:14:45;;;;;;;11.75;4.38;;;;;;;;;;4973877;28;20031;-63
2023/08/22 04:17:11;;;;;;;15.73;4.40;;;;;;;;;;4973645;28;20077;-63
2023/08/22 04:19:37;;;;;;;10.23;4.47;;;;;;;;;;4973763;28;20026;-63
2023/08/22 04:22:02;;;;;;;7.80;3.72;;;;;;;;;;4973756;28;20027;-63
2023/08/22 04:24:28;;;;;;;15.00;4.00;;;;;;;;;;4973536;28;20026;-63
2023/08/22 04:26:53;;;;;;;10.70;3.90;;;;;;;;;;4973382;28;20077;-62
2023/08/22 04:29:19;;;;;;;7.78;4.05;;;;;;;;;;4973628;28;20499;-62
2023/08/22 04:31:44;;;;;;;10.70;4.18;;;;;;;;;;4973331;28;20047;-62
2023/08/22 04:34:09;;;;;;;7.75;3.92;;;;;;;;;;4973617;28;20101;-63
2023/08/22 04:36:35;;;;;;;10.00;4.20;;;;;;;;;;4973398;28;20495;-63
2023/08/22 04:39:00;;;;;;;8.55;4.45;;;;;;;;;;4973167;28;20045;-63
2023/08/22 04:41:26;;;;;;;9.55;4.13;;;;;;;;;;4973172;28;20023;-63
2023/08/22 04:43:51;;;;;;;10.23;4.25;;;;;;;;;;4975985;28;20023;-63
2023/08/22 04:46:17;;;;;;;10.18;3.88;;;;;;;;;;4977343;28;20046;-63
2023/08/22 04:48:42;;;;;;;11.57;4.10;;;;;;;;;;4977548;28;20085;-64
2023/08/22 04:51:08;;;;;;;7.45;3.83;;;;;;;;;;4979956;28;20022;-63
2023/08/22 04:53:33;;;;;;;10.88;4.07;;;;;;;;;;4996689;28;20058;-63
2023/08/22 04:55:58;;;;;;;8.13;4.28;;;;;;;;;;4996517;28;20034;-63
2023/08/22 04:58:24;;;;;;;17.67;5.20;;;;;;;;;;4995314;28;20042;-63
2023/08/22 05:00:49;;;;;;;8.20;4.20;;;;;;;;;;4977234;28;20487;-65
2023/08/22 05:03:15;;;;;;;11.88;4.60;;;;;;;;;;4977109;28;20035;-63
2023/08/22 05:05:40;;;;;;;12.95;4.60;;;;;;;;;;4981006;28;20046;-63
2023/08/22 05:08:06;;;;;;;8.20;4.28;;;;;;;;;;4996411;28;20042;-65
2023/08/22 05:10:31;;;;;;;9.75;4.00;;;;;;;;;;4996067;28;20037;-64
2023/08/22 05:12:58;;;;;;;11.35;3.85;;;;;;;;;;4996400;28;20026;-63
2023/08/22 05:15:23;;;;;;;7.35;3.75;;;;;;;;;;4996211;28;20033;-64
2023/08/22 05:17:49;;;;;;;11.05;4.03;;;;;;;;;;4996383;28;20042;-66
2023/08/22 05:20:14;;;;;;;9.25;4.03;;;;;;;;;;4996284;28;20018;-65
2023/08/22 05:22:39;;;;;;;8.63;3.95;;;;;;;;;;4996295;28;20023;-66
2023/08/22 05:25:05;;;;;;;9.90;4.00;;;;;;;;;;4987907;28;20027;-65
2023/08/22 05:27:31;;;;;;;10.75;4.20;;;;;;;;;;4976690;28;20110;-65
2023/08/22 05:29:56;;;;;;;8.20;4.18;;;;;;;;;;4976819;28;20469;-65
2023/08/22 05:32:22;;;;;;;12.25;4.70;;;;;;;;;;4976491;28;20042;-65
2023/08/22 05:34:47;;;;;;;10.57;5.30;;;;;;;;;;4976497;28;20026;-65
2023/08/22 05:37:13;;;;;;;11.77;4.60;;;;;;;;;;4976498;28;20026;-65
2023/08/22 05:39:38;;;;;;;12.48;4.68;;;;;;;;;;4976228;28;20402;-66
2023/08/22 05:42:04;;;;;;;10.15;4.70;;;;;;;;;;4976231;28;20428;-66
2023/08/22 05:44:32;;;;;;;13.13;4.75;;;;;;;;;;4976378;28;20397;-66
2023/08/22 05:46:57;;;;;;;10.77;4.40;;;;;;;;;;4976145;28;20429;-65
2023/08/22 05:49:23;;;;;;;13.02;4.78;;;;;;;;;;4976242;28;20069;-65
2023/08/22 05:51:48;;;;;;;13.25;4.22;;;;;;;;;;4985638;28;20430;-65
2023/08/22 05:54:13;;;;;;;8.88;4.50;;;;;;;;;;4995391;28;20084;-66
2023/08/22 05:56:39;;;;;;;9.93;4.22;;;;;;;;;;4995587;28;20026;-64
2023/08/22 05:59:04;;;;;;;14.65;4.47;;;;;;;;;;4988478;28;20084;-65
2023/08/22 06:01:30;;;;;;;11.82;4.18;;;;;;;;;;4975914;28;20073;-66
2023/08/22 06:03:55;;;;;;;9.73;4.38;;;;;;;;;;4975972;28;20069;-66
2023/08/22 06:06:20;;;;;;;8.65;4.10;;;;;;;;;;4985149;28;20093;-65
2023/08/22 06:08:46;;;;;;;7.93;3.88;;;;;;;;;;4995257;28;20062;-66
2023/08/22 06:11:11;;;;;;;8.85;4.22;;;;;;;;;;4995254;28;20113;-65
2023/08/22 06:13:37;;;;;;;9.70;3.80;;;;;;;;;;4995312;28;20053;-66
2023/08/22 06:16:02;;;;;;;10.90;3.75;;;;;;;;;;4995306;28;20037;-66
2023/08/22 06:18:28;;;;;;;8.40;3.38;;;;;;;;;;4995056;28;20476;-66
2023/08/22 06:20:58;;;;;;;10.73;3.05;;;;;;;;;;4995195;28;20018;-65
2023/08/22 06:23:24;;;;;;;7.05;3.20;;;;;;;;;;4993607;28;20384;-65
2023/08/22 06:25:49;;;;;;;13.95;3.00;;;;;;;;;;4981075;28;20023;-66
2023/08/22 06:28:15;;;;;;;6.30;2.30;;;;;;;;;;4974149;28;20480;-65
2023/08/22 06:30:40;;;;;;;5.68;2.63;;;;;;;;;;4975639;28;20030;-64
2023/08/22 06:33:05;;;;;;;15.73;3.13;;;;;;;;;;4975458;28;20550;-66
2023/08/22 06:35:31;;;;;;;8.52;2.40;;;;;;;;;;4975276;28;20114;-64
2023/08/22 06:37:56;;;;;;;14.23;3.35;;;;;;;;;;4974989;28;20045;-65
2023/08/22 06:40:22;;;;;;;7.88;2.53;;;;;;;;;;4974126;28;20070;-65
2023/08/22 06:42:48;;;;;;;14.35;2.55;;;;;;;;;;4975242;28;20114;-65
2023/08/22 06:45:14;;;;;;;6.97;2.20;;;;;;;;;;4975105;28;20023;-65
2023/08/22 06:47:39;;;;;;;7.47;2.25;;;;;;;;;;4973924;28;20030;-65
2023/08/22 06:50:05;;;;;;;8.02;2.45;;;;;;;;;;4975053;28;20086;-65
2023/08/22 06:52:31;;;;;;;5.22;2.20;;;;;;;;;;4989895;28;20092;-64
2023/08/22 06:54:56;;;;;;;6.60;2.58;;;;;;;;;;4994504;28;20026;-66
2023/08/22 06:57:22;;;;;;;6.60;2.60;;;;;;;;;;4981445;28;20352;-65
2023/08/22 06:59:47;;;;;;;7.57;2.15;;;;;;;;;;4974816;28;20041;-65
2023/08/22 07:02:13;;;;;;;10.10;2.70;;;;;;;;;;4974572;28;20078;-64
2023/08/22 07:04:38;;;;;;;13.98;2.60;;;;;;;;;;4974917;28;20093;-65
2023/08/22 07:07:04;;;;;;;7.13;2.10;;;;;;;;;;4989323;28;20026;-63
2023/08/22 07:09:29;;;;;;;5.53;2.15;;;;;;;;;;4994171;28;20057;-64
2023/08/22 07:11:54;;;;;;;8.35;2.30;;;;;;;;;;4994155;28;20097;-66
2023/08/22 07:14:20;;;;;;;8.27;2.35;;;;;;;;;;4994028;28;20026;-66
2023/08/22 07:16:46;;;;;;;5.97;2.25;;;;;;;;;;4993857;28;20031;-66
2023/08/22 07:19:11;;;;;;;5.75;1.90;;;;;;;;;;4994091;28;20025;-65
2023/08/22 07:21:36;;;;;;;4.28;1.63;;;;;;;;;;4993768;28;20077;-65
2023/08/22 07:24:03;;;;;;;5.88;1.80;;;;;;;;;;4993977;28;20122;-66
2023/08/22 07:26:28;;;;;;;5.22;2.17;;;;;;;;;;4974571;28;20059;-66
2023/08/22 07:28:54;;;;;;;9.10;3.33;;;;;;;;;;4974302;28;20507;-64
2023/08/22 07:31:19;;;;;;;9.30;2.50;;;;;;;;;;4974304;28;21396;-66
2023/08/22 07:33:44;;;;;;;7.10;1.98;;;;;;;;;;4974456;28;20031;-65
2023/08/22 07:36:17;;;;;;;7.68;2.25;;;;;;;;;;4974015;28;20035;-66
2023/08/22 07:38:43;;;;;;;4.47;1.88;;;;;;;;;;4974331;28;20022;-65
2023/08/22 07:41:10;;;;;;;5.28;1.45;;;;;;;;;;4974184;28;20476;-65
2023/08/22 07:43:35;;;;;;;6.22;1.77;;;;;;;;;;4974198;28;20074;-65
2023/08/22 07:46:01;;;;;;;7.05;1.90;;;;;;;;;;4974141;28;20480;-66
2023/08/22 07:48:26;;;;;;;6.95;1.90;;;;;;;;;;4973945;28;20040;-66
2023/08/22 07:50:54;;;;;;;5.90;1.60;;;;;;;;;;4975588;28;20061;-64
2023/08/22 07:53:19;;;;;;;5.20;1.90;;;;;;;;;;4992354;28;20041;-64
2023/08/22 07:55:47;;;;;;;5.53;1.50;;;;;;;;;;4993330;28;20234;-66
2023/08/22 07:58:13;;;;;;;8.40;1.98;;;;;;;;;;4993099;28;20030;-65
2023/08/22 08:00:38;;;;;;;7.60;2.10;;;;;;;;;;4973977;28;20081;-66
2023/08/22 08:03:04;;;;;;;6.90;1.75;;;;;;;;;;4973441;28;20136;-64
2023/08/22 08:05:30;;;;;;;5.32;1.52;;;;;;;;;;4976028;28;20106;-66
2023/08/22 08:07:55;;;;;;;9.73;1.95;;;;;;;;;;4993285;28;20030;-66
2023/08/22 08:10:21;;;;;;;6.45;1.65;;;;;;;;;;4992002;28;20037;-65
2023/08/22 08:12:46;;;;;;;6.22;1.75;;;;;;;;;;4993293;28;20018;-66
2023/08/22 08:15:11;;;;;;;6.78;2.38;;;;;;;;;;4993012;28;20423;-66
2023/08/22 08:17:37;;;;;;;5.18;1.95;;;;;;;;;;4992250;28;20495;-64
2023/08/22 08:20:04;;;;;;;9.93;2.10;;;;;;;;;;4992988;28;20030;-64
2023/08/22 08:22:30;;;;;;;9.23;2.47;;;;;;;;;;4993008;28;20050;-65
2023/08/22 08:24:56;;;;;;;7.57;1.70;;;;;;;;;;4986099;28;20491;-63
2023/08/22 08:27:21;;;;;;;5.65;1.70;;;;;;;;;;4973394;28;20424;-65
2023/08/22 08:29:47;;;;;;;5.00;1.70;;;;;;;;;;4973519;28;20031;-66
2023/08/22 08:32:12;;;;;;;8.30;1.75;;;;;;;;;;4973150;28;20047;-64
2023/08/22 08:34:38;;;;;;;4.28;1.42;;;;;;;;;;4973194;28;20114;-64
2023/08/22 08:37:04;;;;;;;4.00;1.42;;;;;;;;;;4973491;28;20117;-66
2023/08/22 08:39:29;;;;;;;5.00;1.90;;;;;;;;;;4973242;28;20043;-65
2023/08/22 08:42:10;;;;;;;5.18;1.45;;;;;;;;;;4973501;28;20392;-66
2023/08/22 08:44:36;;;;;;;4.53;1.30;;;;;;;;;;4973548;28;20031;-63
2023/08/22 08:47:03;;;;;;;5.10;1.23;;;;;;;;;;4973447;28;20027;-65
2023/08/22 08:49:32;;;;;;;4.72;1.40;;;;;;;;;;4973095;28;20093;-66
2023/08/22 08:52:00;;;;;;;10.70;2.08;;;;;;;;;;4982625;28;20173;-63
2023/08/22 08:54:27;;;;;;;5.32;1.55;;;;;;;;;;4991449;28;20026;-63
2023/08/22 08:56:52;;;;;;;7.15;2.22;;;;;;;;;;4992704;28;20498;-66
2023/08/22 08:59:18;;;;;;;7.93;2.20;;;;;;;;;;4984217;28;20065;-65
2023/08/22 09:01:45;;;;;;;10.15;2.35;;;;;;;;;;4973433;28;20130;-65
2023/08/22 09:04:10;;;;;;;9.93;2.30;;;;;;;;;;4972951;28;20077;-65
2023/08/22 09:06:37;;;;;;;14.75;2.15;;;;;;;;;;4984644;28;20364;-64
2023/08/22 09:09:05;;;;;;;6.22;2.20;;;;;;;;;;4992754;28;20065;-66
2023/08/22 09:11:31;;;;;;;12.07;3.33;;;;;;;;;;4992520;28;20030;-65
2023/08/22 09:13:58;;;;;;;19.33;3.33;;;;;;;;;;4992661;28;20053;-65
2023/08/22 09:16:24;;;;;;;10.30;2.78;;;;;;;;;;4992305;28;20515;-64
2023/08/22 09:18:50;;;;;;;11.13;2.65;;;;;;;;;;4992665;28;20082;-64
2023/08/22 09:21:16;;;;;;;13.32;3.40;;;;;;;;;;4992436;28;20104;-63
2023/08/22 09:23:42;;;;;;;9.10;3.20;;;;;;;;;;4992512;28;20054;-65
2023/08/22 09:26:11;;;;;;;8.73;2.45;;;;;;;;;;4976041;28;20062;-65
2023/08/22 09:28:40;;;;;;;13.40;2.75;;;;;;;;;;4973641;28;20046;-65
2023/08/22 09:31:05;;;;;;;7.97;2.78;;;;;;;;;;4976278;28;20546;-65
2023/08/22 09:33:46;;;;;;;11.32;2.30;;;;;;;;;;4976509;28;20034;-66
2023/08/22 09:36:21;;;;;;;9.40;2.30;;;;;;;;;;4976306;28;20054;-64
2023/08/22 09:38:57;;;;;;;9.55;2.53;;;;;;;;;;4976286;28;20038;-65
2023/08/22 09:41:24;;;;;;;8.80;2.17;;;;;;;;;;4976583;28;20023;-66
2023/08/22 09:43:58;;;;;;;11.65;2.03;;;;;;;;;;4976245;28;20412;-63
2023/08/22 09:46:24;;;;;;;5.45;1.83;;;;;;;;;;4975861;28;20380;-65
2023/08/22 09:48:50;;;;;;;8.90;2.00;;;;;;;;;;4976116;28;20097;-63
2023/08/22 09:51:20;;;;;;;7.22;2.10;;;;;;;;;;4981091;28;20026;-64
2023/08/22 09:54:00;;;;;;;8.80;2.13;;;;;;;;;;4995723;28;20085;-64
2023/08/22 09:56:26;;;;;;;12.55;2.40;;;;;;;;;;4995537;28;20027;-64
2023/08/22 09:58:52;;;;;;;8.02;2.20;;;;;;;;;;4990639;28;20033;-65
2023/08/22 10:01:20;;;;;;;11.25;2.42;;;;;;;;;;4975753;28;20476;-63
2023/08/22 10:03:50;;;;;;;9.05;2.28;;;;;;;;;;4976049;28;20106;-65
2023/08/22 10:06:15;;;;;;;;;;;;;;;;;;4984395;28;20106;-64
2023/08/22 10:08:42;;;;;;;9.73;2.30;;;;;;;;;;4995667;28;19913;-65
2023/08/22 10:11:10;;;;;;;6.60;1.70;;;;;;;;;;4995381;28;20037;-67
2023/08/22 10:13:37;;;;;;;6.25;1.60;;;;;;;;;;4995412;28;20026;-65
2023/08/22 10:16:03;;;;;;;7.65;1.90;;;;;;;;;;4995057;28;20038;-66
2023/08/22 10:18:29;;;;;;;13.93;2.38;;;;;;;;;;4995173;28;20057;-65
2023/08/22 10:20:54;;;;;;;8.65;1.80;;;;;;;;;;4995121;28;20022;-67
2023/08/22 10:23:52;;;;;;;8.45;1.83;;;;;;;;;;4995078;28;20030;-67
2023/08/22 10:26:19;;;;;;;7.85;2.08;;;;;;;;;;4974951;28;20488;-66
2023/08/22 10:29:12;;;;;;;9.75;2.15;;;;;;;;;;4975402;28;20034;-66
2023/08/22 10:32:02;;;;;;;10.90;2.03;;;;;;;;;;4975468;28;20050;-67
2023/08/22 10:34:33;;;;;;;13.15;2.08;;;;;;;;;;4975328;28;20527;-66
2023/08/22 10:37:00;;;;;;;8.63;1.50;;;;;;;;;;4975179;28;20113;-66
2023/08/22 10:39:43;;;;;;;6.03;1.60;;;;;;;;;;4975208;28;20516;-67
2023/08/22 10:42:22;;;;;;;8.82;1.88;;;;;;;;;;4974456;28;20452;-66
2023/08/22 10:44:52;;;;;;;6.20;1.63;;;;;;;;;;4974849;28;20477;-66
2023/08/22 10:47:21;;;;;;;4.13;1.45;;;;;;;;;;4975276;28;20030;-66
2023/08/22 10:49:52;;;;;;;6.53;1.63;;;;;;;;;;4975145;28;20031;-66
2023/08/22 10:52:23;;;;;;;7.30;1.55;;;;;;;;;;4988271;28;20030;-66
2023/08/22 10:55:00;;;;;;;8.25;1.70;;;;;;;;;;4994549;28;20083;-66
2023/08/22 10:57:31;;;;;;;7.05;1.98;;;;;;;;;;4994430;28;20030;-66
2023/08/22 10:59:59;;;;;;;4.97;1.60;;;;;;;;;;4980512;28;20358;-65
2023/08/22 11:02:28;;;;;;;4.43;1.70;;;;;;;;;;4974885;28;20031;-66
2023/08/22 11:04:56;;;;;;;5.30;1.50;;;;;;;;;;4974833;28;20023;-66
2023/08/22 11:07:23;;;;;;;7.68;2.20;;;;;;;;;;4992195;28;20036;-66
2023/08/22 11:09:49;;;;;;;3.45;1.30;;;;;;;;;;4994381;28;20105;-66
2023/08/22 11:12:18;;;;;;;6.10;1.48;;;;;;;;;;4994046;28;20417;-66
2023/08/22 11:14:45;;;;;;;;;;;;;;;;;;4994485;28;20053;-66
2023/08/22 11:17:15;;;;;;;4.55;1.55;;;;;;;;;;4993946;28;19914;-66
2023/08/22 11:19:45;;;;;;;8.30;1.67;;;;;;;;;;4994014;28;20399;-64
2023/08/22 11:22:10;;;;;;;9.32;1.60;;;;;;;;;;4993981;28;20479;-66
2023/08/22 11:24:36;;;;;;;4.22;1.50;;;;;;;;;;4989684;28;20063;-66
2023/08/22 11:27:05;;;;;;;4.85;1.77;;;;;;;;;;4974187;28;20022;-66
2023/08/22 11:29:50;;;;;;;4.07;1.33;;;;;;;;;;4974309;28;20026;-66
2023/08/22 11:32:23;;;;;;;3.75;1.30;;;;;;;;;;4974147;28;20308;-65
2023/08/22 11:34:54;;;;;;;3.80;1.27;;;;;;;;;;4974330;28;20069;-66
2023/08/22 11:37:21;;;;;;;4.50;1.40;;;;;;;;;;4974192;28;20034;-65
2023/08/22 11:39:47;;;;;;;6.40;1.40;;;;;;;;;;4973961;28;20034;-66
2023/08/22 11:42:17;;;;;;;7.47;1.48;;;;;;;;;;4973775;28;20059;-65
2023/08/22 11:45:04;;;;;;;4.70;1.30;;;;;;;;;;4973974;28;20026;-66
2023/08/22 11:47:35;;;;;;;4.05;1.30;;;;;;;;;;4973924;28;20118;-66
2023/08/22 11:50:02;;;;;;;6.72;1.33;;;;;;;;;;4974062;28;20038;-66
2023/08/22 11:52:28;;;;;;;3.92;1.42;;;;;;;;;;4988416;28;20039;-66
2023/08/22 11:55:05;;;;;;;5.88;1.65;;;;;;;;;;4993457;28;20135;-67
2023/08/22 11:57:32;;;;;;;4.15;1.38;;;;;;;;;;4993234;28;20033;-67
2023/08/22 12:00:00;;;;;;;6.97;1.70;;;;;;;;;;4979619;28;20027;-66
2023/08/22 12:02:26;;;;;;;8.02;1.60;;;;;;;;;;4973931;28;20077;-65
2023/08/22 12:04:55;;;;;;;8.18;2.28;;;;;;;;;;4962306;28;20027;-66
2023/08/22 12:07:23;;;;;;;3.40;1.50;;;;;;;;;;4988978;28;20518;-66
2023/08/22 12:10:07;;;;;;;4.50;1.85;;;;;;;;;;4993281;28;20030;-66
2023/08/22 12:12:32;;;;;;;4.47;1.40;;;;;;;;;;4992811;28;20072;-66
2023/08/22 12:14:59;;;;;;;6.68;1.67;;;;;;;;;;4973588;28;20026;-65
2023/08/22 12:17:25;;;;;;;3.60;1.60;;;;;;;;;;4972268;28;20030;-65
2023/08/22 12:19:50;;;;;;;8.52;2.00;;;;;;;;;;4973621;28;20201;-65
2023/08/22 12:22:15;;;;;;;5.43;1.90;;;;;;;;;;4973386;28;20050;-66
2023/08/22 12:24:44;;;;;;;6.75;1.90;;;;;;;;;;4973451;28;20026;-66
2023/08/22 12:27:09;;;;;;;4.50;1.90;;;;;;;;;;4973368;28;20102;-63
2023/08/22 12:29:35;;;;;;;6.40;1.85;;;;;;;;;;4973467;28;20078;-65
2023/08/22 12:32:00;;;;;;;6.28;2.05;;;;;;;;;;4973581;28;20050;-68
2023/08/22 12:34:25;;;;;;;6.53;2.00;;;;;;;;;;4973518;28;20030;-69
2023/08/22 12:36:51;;;;;;;3.53;1.55;;;;;;;;;;4973364;28;20042;-71
2023/08/22 12:39:16;;;;;;;6.03;1.70;;;;;;;;;;4973223;28;20428;-62
2023/08/22 12:41:42;;;;;;;5.85;1.60;;;;;;;;;;4973630;28;20018;-67
2023/08/22 12:44:07;;;;;;;6.53;1.58;;;;;;;;;;4973436;28;20027;-70
2023/08/22 12:46:33;;;;;;;2.90;1.30;;;;;;;;;;4973524;28;20077;-70
2023/08/22 12:48:58;;;;;;;3.40;1.38;;;;;;;;;;4973433;28;20035;-66
2023/08/22 12:51:23;;;;;;;9.43;1.83;;;;;;;;;;4979397;28;20018;-68
2023/08/22 12:53:49;;;;;;;5.68;1.15;;;;;;;;;;4992783;28;20461;-71
2023/08/22 12:56:15;;;;;;;4.30;1.42;;;;;;;;;;4992695;28;20384;-68
2023/08/22 12:58:41;;;;;;;2.53;1.30;;;;;;;;;;4987462;28;20058;-72
2023/08/22 13:01:07;;;;;;;4.10;2.03;;;;;;;;;;4969979;28;20532;-62
2023/08/22 13:03:33;;;;;;;5.60;1.33;;;;;;;;;;4972368;28;20074;-64
2023/08/22 13:05:59;;;;;;;4.55;1.38;;;;;;;;;;4986358;28;20513;-68
2023/08/22 13:08:27;;;;;;;3.22;1.40;;;;;;;;;;4980816;28;20399;-71
2023/08/22 13:10:54;;;;;;;4.43;1.23;;;;;;;;;;4980151;28;20217;-69
2023/08/22 13:13:23;;;;;;;4.72;1.52;;;;;;;;;;4977536;28;20396;-71
2023/08/22 13:15:48;;;;;;;7.40;1.30;;;;;;;;;;4977683;28;20027;-71
2023/08/22 13:18:14;;;;;;;4.85;1.30;;;;;;;;;;4980214;28;20044;-71
2023/08/22 13:20:40;;;;;;;6.13;1.50;;;;;;;;;;4978421;28;20058;-72
2023/08/22 13:23:05;;;;;;;2.88;1.27;;;;;;;;;;4979019;28;20045;-70
2023/08/22 13:25:31;;;;;;;3.92;1.30;;;;;;;;;;4974376;28;20053;-66
2023/08/22 13:27:56;;;;;;;5.13;1.35;;;;;;;;;;4976950;28;20114;-72
2023/08/22 13:30:23;;;;;;;7.75;1.30;;;;;;;;;;4976681;28;20018;-72
2023/08/22 13:32:48;;;;;;;4.45;1.15;;;;;;;;;;4976553;28;20047;-72
2023/08/22 13:35:15;;;;;;;5.95;1.52;;;;;;;;;;4976673;28;20105;-72
2023/08/22 13:37:43;;;;;;;6.45;1.35;;;;;;;;;;4976250;28;20026;-69
2023/08/22 13:40:09;;;;;;;2.80;1.00;;;;;;;;;;4976329;28;20118;-69
2023/08/22 13:42:35;;;;;;;7.57;1.30;;;;;;;;;;4976755;28;20147;-71
2023/08/22 13:45:01;;;;;;;6.97;1.20;;;;;;;;;;4976632;28;20037;-66
2023/08/22 13:47:27;;;;;;;6.97;1.42;;;;;;;;;;4976508;28;20325;-71
2023/08/22 13:49:52;;;;;;;4.75;1.35;;;;;;;;;;4976478;28;20050;-71
2023/08/22 13:52:18;;;;;;;4.50;1.33;;;;;;;;;;4989370;28;20026;-72
2023/08/22 13:54:43;;;;;;;5.47;1.63;;;;;;;;;;4995743;28;20547;-71
2023/08/22 13:57:09;;;;;;;5.20;1.48;;;;;;;;;;4979933;28;20114;-71
2023/08/22 13:59:35;;;;;;;4.00;1.13;;;;;;;;;;4968433;28;20031;-70
2023/08/22 14:02:00;;;;;;;4.70;1.20;;;;;;;;;;4966456;28;20372;-71
2023/08/22 14:04:26;;;;;;;8.13;1.60;;;;;;;;;;4968472;28;20030;-72
2023/08/22 14:06:52;;;;;;;3.65;1.30;;;;;;;;;;4987376;28;20072;-70
2023/08/22 14:09:18;;;;;;;4.32;1.50;;;;;;;;;;4995316;28;20026;-72
2023/08/22 14:11:43;;;;;;;5.90;1.50;;;;;;;;;;4995412;28;20093;-72
2023/08/22 14:14:08;;;;;;;5.68;1.42;;;;;;;;;;4995479;28;20069;-71
2023/08/22 14:16:34;;;;;;;5.60;1.30;;;;;;;;;;4994141;28;20058;-73
2023/08/22 14:18:59;;;;;;;5.07;1.67;;;;;;;;;;4995420;28;20026;-69
2023/08/22 14:21:25;;;;;;;8.07;1.52;;;;;;;;;;4995208;28;20041;-72
2023/08/22 14:23:50;;;;;;;5.00;1.38;;;;;;;;;;4995212;28;20022;-72
2023/08/22 14:26:16;;;;;;;6.82;1.48;;;;;;;;;;4967712;28;20031;-72
2023/08/22 14:28:41;;;;;;;5.10;1.27;;;;;;;;;;4956314;29;20061;-74
2023/08/22 14:31:07;;;;;;;4.50;1.70;;;;;;;;;;4956242;29;20079;-74
2023/08/22 14:33:32;;;;;;;6.22;1.50;;;;;;;;;;4971679;28;20053;-74
2023/08/22 14:35:58;;;;;;;4.82;1.63;;;;;;;;;;4975269;28;20495;-70
2023/08/22 14:38:23;;;;;;;7.43;1.65;;;;;;;;;;4962525;28;20030;-75